Main page
METAR-TAF:

METAR-TAF

Airports :

Jerez Airport

Jerez de la Frontera, Spain

latitude: 36-45N, longitude: 006-04W, elevation: 27 m

Current weather observation

The report was made 33 minutes ago, at 19:00 UTC
Wind 4 kt from the Southeast, varying between East and South/Southeast
Temperature 12°C
Humidity 67%
Pressure 1022 hPa
Visibility 10 km or more
Broken clouds at a height of 5200 ft

METAR: LEJR 211900Z 13004KT 080V160 9999 BKN052 12/06 Q1022

Time: 20:33 (19:33 UTC)

Forecast

The report was made 5 hours and 33 minutes ago, at 14:00 UTC
Forecast valid from 21 at 15 UTC to 22 at 15 UTC
Wind 5 kt from the Northeast
Visibility 10 km or more
no clouds below 1500 m and no cumulonimbus
Becoming
from 22 at 10 UTC to 22 at 12 UTC
Wind 10 kt from the East/Southeast

TAF: LEJR 211400Z 2115/2215 04005KT CAVOK TX17/2115Z TN03/2207Z BECMG 2210/2212 12010KT

Weather observations and forecasts of more than 4000 airports (METAR and TAF reports).

The available stations are represented by yellow and red dots on the map.

Hover mouse over dot to see the name of the station.

Then click to see weather observations and forecasts.

To change the map : click on the green buttons with a black cross to zoom in, on the green button with a dash to zoom out, or on the green arrows for adjacent maps.


METAR-TAF: